VTUW

Nakhon Phanom Airport

Thailand
TAF VTUW 231700Z 2318/2418 03005KT 7000 FEW025 BECMG 2322/2324 5000 BR NSC BECMG 2401/2403 8000 NSW FEW030 TEMPO 2409/2412 VRB10G20KT 5000 TSRA FEW018CB BKN020 BKN080
Issued Valid From Valid To
Apr-23 @ 17:00 UTC
(6 hours ago)
Apr-23 @ 18:00 UTC
(5 hours ago)
Apr-24 @ 18:00 UTC
(in 19 hours)
Expired Click to View Apr-23 @ 18:00 to Apr-23 @ 22:00
TAF VTUW 231700Z 2318/2418 03005KT 7000 FEW025
Wind Visibility Clouds
30° at 5 knots 7,001 meters
  • Few at 2,500' AGL
Becoming Apr-23 @ 22:00 to Apr-24 @ 01:00
BECMG 2322/2324 5000 BR NSC
Wind Visibility Clouds Conditions
30° at 5 knots 5,005 meters
  • No significant clouds
  • Mist
Becoming Apr-24 @ 01:00 to Apr-24 @ 18:00
BECMG 2401/2403 8000 NSW FEW030
Wind Visibility Clouds Conditions
30° at 5 knots 7,998 meters
  • Few at 3,000' AGL
Temporary Apr-24 @ 09:00 to Apr-24 @ 12:00
TEMPO 2409/2412 VRB10G20KT 5000 TSRA FEW018CB BKN020 BKN080
Wind Visibility Clouds Conditions
Variable at 10 knots
 Gusting to 20 knots
5,005 meters
  • Few at 1,800' AGL
  • Broken at 2,000' AGL
  • Broken at 8,000' AGL
  • Thunderstorm
  • Rain
TAF VTUW 231700Z 2318/2418 03005KT 7000 FEW025 BECMG 2322/2324 5000 BR NSC BECMG 2401/2403 8000 NSW FEW030 TEMPO 2409/2412 VRB10G20KT 5000 TSRA FEW018CB BKN020 BKN080
Issued Apr-23 @ 17:00 UTC
(6 hours ago)
Valid From Apr-23 @ 18:00 UTC
(5 hours ago)
Valid To Apr-24 @ 18:00 UTC
(in 19 hours)
Apr-23 @ 18:00 - Apr-23 @ 22:00
Wind Visibility
30° at 5 knots 7,001 meters
Clouds
  • Few at 2,500' AGL
Becoming Apr-23 @ 22:00 - Apr-24 @ 01:00
Wind Visibility
30° at 5 knots 5,005 meters
Clouds
  • No significant clouds
Conditions
  • Mist
Becoming Apr-24 @ 01:00 - Apr-24 @ 18:00
Wind Visibility
30° at 5 knots 7,998 meters
Clouds
  • Few at 3,000' AGL
Conditions
Temporary Apr-24 @ 09:00 - Apr-24 @ 12:00
Wind Visibility
Variable at 10 knots
 Gusting to 20 knots
5,005 meters
Clouds
  • Few at 1,800' AGL
  • Broken at 2,000' AGL
  • Broken at 8,000' AGL
Conditions
  • Thunderstorm
  • Rain